createdAt,value
2023-04-25T00:00:56.494Z,97197.81
2023-04-25T00:03:26.373Z,97198.63
2023-04-25T00:05:57.825Z,97201.31
2023-04-25T00:08:27.139Z,97197.81
2023-04-25T00:10:55.492Z,97204.00
2023-04-25T00:13:23.860Z,97201.50
2023-04-25T00:15:52.696Z,97200.50
2023-04-25T00:18:21.112Z,97207.72
2023-04-25T00:20:49.575Z,97202.34
2023-04-25T00:23:19.590Z,97206.69
2023-04-25T00:25:48.318Z,97199.63
2023-04-25T00:28:17.075Z,97202.34
2023-04-25T00:30:45.727Z,97207.72
2023-04-25T00:33:14.094Z,97199.63
2023-04-25T00:35:42.463Z,97204.00
2023-04-25T00:38:10.746Z,97208.56
2023-04-25T00:40:40.474Z,97198.81
2023-04-25T00:43:08.839Z,97208.56
2023-04-25T00:45:37.193Z,97203.38
2023-04-25T00:48:06.084Z,97208.75
2023-04-25T00:50:35.349Z,97210.41
2023-04-25T00:53:04.526Z,97210.41
2023-04-25T00:55:33.550Z,97203.38
2023-04-25T00:58:03.411Z,97212.50
2023-04-25T01:00:31.882Z,97205.25
2023-04-25T01:03:00.439Z,97214.16
2023-04-25T01:05:28.820Z,97207.94
2023-04-25T01:07:57.162Z,97207.13
2023-04-25T01:10:25.704Z,97206.06
2023-04-25T01:12:54.018Z,97208.75
2023-04-25T01:15:23.933Z,97219.53
2023-04-25T01:17:52.361Z,97210.63
2023-04-25T01:20:20.906Z,97207.94
2023-04-25T01:22:50.582Z,97220.34
2023-04-25T01:25:19.041Z,97216.84
2023-04-25T01:27:47.385Z,97217.88
2023-04-25T01:30:15.854Z,97215.19
2023-04-25T01:32:44.490Z,97222.41
2023-04-25T01:35:13.620Z,97227.81
2023-04-25T01:37:42.076Z,97227.81
2023-04-25T01:40:12.447Z,97224.28
2023-04-25T01:42:42.797Z,97228.66
2023-04-25T01:45:12.724Z,97235.88
2023-04-25T01:47:42.626Z,97220.78
2023-04-25T01:50:12.245Z,97228.84
2023-04-25T01:52:40.660Z,97229.66
2023-04-25T01:55:11.460Z,97222.41
2023-04-25T01:57:39.867Z,97226.97
2023-04-25T02:00:10.097Z,97224.28
2023-04-25T02:02:38.565Z,97230.72
2023-04-25T02:05:08.696Z,97234.44
2023-04-25T02:07:37.038Z,97230.72
2023-04-25T02:10:06.169Z,97233.41
2023-04-25T02:12:35.878Z,97235.28
2023-04-25T02:15:04.427Z,97237.13
2023-04-25T02:17:33.537Z,97236.09
2023-04-25T02:20:01.914Z,97240.66
2023-04-25T02:22:31.470Z,97246.06
2023-04-25T02:24:59.856Z,97239.81
2023-04-25T02:27:28.254Z,97246.06
2023-04-25T02:29:58.082Z,97239.81
2023-04-25T02:32:26.751Z,97247.06
2023-04-25T02:34:55.607Z,97247.06
2023-04-25T02:37:23.969Z,97239.00
2023-04-25T02:39:52.344Z,97237.34
2023-04-25T02:42:20.777Z,97242.72
2023-04-25T02:44:49.146Z,97251.63
2023-04-25T02:47:18.979Z,97250.00
2023-04-25T02:49:48.314Z,97248.13
2023-04-25T02:52:16.720Z,97247.31
2023-04-25T02:54:45.097Z,97243.56
2023-04-25T02:57:13.488Z,97244.59
2023-04-25T02:59:41.786Z,97246.44
2023-04-25T03:02:10.156Z,97248.31
2023-04-25T03:04:39.973Z,97247.31
2023-04-25T03:07:08.699Z,97253.50
2023-04-25T03:09:37.006Z,97247.31
2023-04-25T03:12:06.405Z,97243.75
2023-04-25T03:14:35.691Z,97252.69
2023-04-25T03:17:04.173Z,97249.13
2023-04-25T03:19:32.645Z,97241.06
2023-04-25T03:22:02.337Z,97245.63
2023-04-25T03:24:31.093Z,97250.00
2023-04-25T03:26:59.653Z,97245.63
2023-04-25T03:29:29.078Z,97247.50
2023-04-25T03:31:57.497Z,97245.63
2023-04-25T03:34:27.016Z,97251.84
2023-04-25T03:36:55.407Z,97251.84
2023-04-25T03:39:25.106Z,97260.13
2023-04-25T03:41:53.530Z,97260.94
2023-04-25T03:44:21.965Z,97264.47
2023-04-25T03:46:51.465Z,97262.81
2023-04-25T03:49:19.872Z,97270.91
2023-04-25T03:51:48.398Z,97271.72
2023-04-25T03:54:16.874Z,97270.91
2023-04-25T03:56:46.602Z,97277.09
2023-04-25T03:59:15.041Z,97282.47
2023-04-25T04:01:43.365Z,97272.75
2023-04-25T04:04:11.862Z,97282.47
2023-04-25T04:06:40.303Z,97287.03
2023-04-25T04:09:11.918Z,97284.34
2023-04-25T04:11:40.474Z,97292.44
2023-04-25T04:14:11.072Z,97296.16
2023-04-25T04:16:39.531Z,97296.16
2023-04-25T04:19:08.365Z,97283.72
2023-04-25T04:21:36.754Z,97294.50
2023-04-25T04:24:06.649Z,97291.81
2023-04-25T04:26:35.500Z,97297.19
2023-04-25T04:29:03.983Z,97294.50
2023-04-25T04:31:33.884Z,97299.88
2023-04-25T04:34:02.744Z,97304.25
2023-04-25T04:36:31.147Z,97300.09
2023-04-25T04:38:59.483Z,97292.84
2023-04-25T04:41:27.967Z,97291.19
2023-04-25T04:43:57.086Z,97294.72
2023-04-25T04:46:25.985Z,97297.59
2023-04-25T04:48:57.477Z,97299.47
2023-04-25T04:51:25.907Z,97303.38
2023-04-25T04:53:54.319Z,97300.50
2023-04-25T04:56:24.762Z,97299.44
2023-04-25T04:58:53.572Z,97292.63
2023-04-25T05:01:21.934Z,97291.56
2023-04-25T05:03:50.813Z,97299.88
2023-04-25T05:06:21.424Z,97295.94
2023-04-25T05:08:50.161Z,97290.13
2023-04-25T05:11:18.532Z,97290.97
2023-04-25T05:13:46.991Z,97280.81
2023-04-25T05:16:15.409Z,97293.03
2023-04-25T05:18:44.037Z,97300.28
2023-04-25T05:21:12.473Z,97306.09
2023-04-25T05:23:42.677Z,97314.34
2023-04-25T05:26:14.746Z,97300.28
2023-04-25T05:28:43.402Z,97296.34
2023-04-25T05:31:12.383Z,97301.72
2023-04-25T05:33:40.728Z,97305.66
2023-04-25T05:36:10.386Z,97300.91
2023-04-25T05:38:38.744Z,97294.91
2023-04-25T05:41:08.608Z,97304.84
2023-04-25T05:43:36.872Z,97305.66
2023-04-25T05:46:05.549Z,97312.91
2023-04-25T05:48:33.955Z,97304.03
2023-04-25T05:51:02.384Z,97307.31
2023-04-25T05:53:30.750Z,97292.84
2023-04-25T05:55:59.063Z,97310.63
2023-04-25T05:58:28.867Z,97311.66
2023-04-25T06:00:57.462Z,97324.50
2023-04-25T06:03:26.203Z,97328.47
2023-04-25T06:05:54.771Z,97338.47
2023-04-25T06:08:23.120Z,97340.72
2023-04-25T06:10:51.650Z,97315.38
2023-04-25T06:13:19.983Z,97313.97
2023-04-25T06:15:49.796Z,97317.28
2023-04-25T06:18:18.689Z,97316.44
2023-04-25T06:20:47.116Z,97314.16
2023-04-25T06:23:15.467Z,97315.59
2023-04-25T06:25:43.885Z,97325.78
2023-04-25T06:28:12.235Z,97311.47
2023-04-25T06:30:40.723Z,97343.34
2023-04-25T06:33:10.794Z,97329.41
2023-04-25T06:35:39.156Z,97340.72
2023-04-25T06:38:07.549Z,97342.41
2023-04-25T06:40:35.922Z,97350.88
2023-04-25T06:43:04.344Z,97329.38
2023-04-25T06:45:32.775Z,97343.41
2023-04-25T06:48:01.314Z,97333.63
2023-04-25T06:50:31.165Z,97334.53
2023-04-25T06:52:59.527Z,97329.16
2023-04-25T06:55:27.957Z,97332.06
2023-04-25T06:57:56.440Z,97331.84
2023-04-25T07:00:24.883Z,97339.22
2023-04-25T07:02:53.262Z,97336.25
2023-04-25T07:05:22.355Z,97328.66
2023-04-25T07:07:52.090Z,97324.41
2023-04-25T07:10:20.528Z,97328.59
2023-04-25T07:12:48.939Z,97331.16
2023-04-25T07:15:17.521Z,97329.88
2023-04-25T07:17:45.956Z,97335.84
2023-04-25T07:20:14.344Z,97333.34
2023-04-25T07:22:42.683Z,97325.16
2023-04-25T07:25:12.587Z,97326.41
2023-04-25T07:27:41.916Z,97313.44
2023-04-25T07:30:11.325Z,97327.94
2023-04-25T07:32:39.667Z,97340.09
2023-04-25T07:35:09.456Z,97339.44
2023-04-25T07:37:37.954Z,97323.31
2023-04-25T07:40:08.936Z,97333.63
2023-04-25T07:42:38.685Z,97331.56
2023-04-25T07:45:08.631Z,97332.44
2023-04-25T07:47:37.251Z,97330.78
2023-04-25T07:50:06.053Z,97334.09
2023-04-25T07:52:34.427Z,97326.88
2023-04-25T07:55:02.833Z,97333.09
2023-04-25T07:57:31.949Z,97344.78
2023-04-25T08:00:01.663Z,97337.75
2023-04-25T08:02:30.333Z,97343.34
2023-04-25T08:05:00.179Z,97333.66
2023-04-25T08:07:28.803Z,97330.78
2023-04-25T08:09:57.247Z,97342.59
2023-04-25T08:12:25.972Z,97334.88
2023-04-25T08:14:54.374Z,97333.25
2023-04-25T08:17:24.091Z,97342.66
2023-04-25T08:19:52.536Z,97339.63
2023-04-25T08:22:21.060Z,97327.09
2023-04-25T08:24:49.467Z,97322.16
2023-04-25T08:27:17.863Z,97330.44
2023-04-25T08:29:46.355Z,97320.81
2023-04-25T08:32:15.162Z,97324.31
2023-04-25T08:34:45.116Z,97324.94
2023-04-25T08:37:13.559Z,97325.13
2023-04-25T08:39:43.196Z,97323.28
2023-04-25T08:42:11.732Z,97322.66
2023-04-25T08:44:40.053Z,97321.63
2023-04-25T08:47:08.495Z,97325.56
2023-04-25T08:49:36.921Z,97323.47
2023-04-25T08:52:07.530Z,97315.41
2023-04-25T08:54:37.189Z,97329.72
2023-04-25T08:57:06.851Z,97323.91
2023-04-25T08:59:36.646Z,97318.53
2023-04-25T09:02:05.884Z,97326.38
2023-04-25T09:04:34.503Z,97329.09
2023-04-25T09:07:02.947Z,97332.59
2023-04-25T09:09:32.865Z,97328.03
2023-04-25T09:12:02.713Z,97342.31
2023-04-25T09:14:31.181Z,97343.34
2023-04-25T09:17:04.719Z,97338.19
2023-04-25T09:22:06.391Z,97334.25
2023-04-25T09:24:40.673Z,97340.22
2023-04-25T09:27:09.577Z,97340.88
2023-04-25T09:29:39.160Z,97338.59
2023-04-25T09:32:21.567Z,97333.22
2023-04-25T09:34:51.777Z,97345.84
2023-04-25T09:37:21.697Z,97334.59
2023-04-25T09:39:52.671Z,97340.66
2023-04-25T09:42:23.257Z,97350.56
2023-04-25T09:44:52.113Z,97333.22
2023-04-25T09:47:22.514Z,97328.22
2023-04-25T09:49:51.100Z,97332.38
2023-04-25T09:52:20.613Z,97335.88
2023-04-25T09:54:50.915Z,97324.91
2023-04-25T09:57:20.521Z,97322.22
2023-04-25T09:59:49.775Z,97326.78
2023-04-25T10:02:20.540Z,97334.25
2023-04-25T10:04:52.741Z,97327.59
2023-04-25T10:07:22.046Z,97325.13
2023-04-25T10:09:51.970Z,97335.91
2023-04-25T10:12:21.049Z,97323.84
2023-04-25T10:14:49.501Z,97328.25
2023-04-25T10:17:18.168Z,97323.25
2023-04-25T10:19:46.594Z,97321.38
2023-04-25T10:22:19.527Z,97326.31
2023-04-25T10:24:48.414Z,97313.50
2023-04-25T10:27:18.442Z,97311.88
2023-04-25T10:29:47.025Z,97316.41
2023-04-25T10:32:15.841Z,97317.66
2023-04-25T10:34:48.121Z,97317.03
2023-04-25T10:37:17.356Z,97321.38
2023-04-25T10:39:46.708Z,97331.94
2023-04-25T10:42:15.154Z,97320.34
2023-04-25T10:45:03.848Z,97315.97
2023-04-25T10:47:37.974Z,97310.41
2023-04-25T10:50:11.081Z,97310.59
2023-04-25T10:52:41.781Z,97306.06
2023-04-25T10:55:11.018Z,97313.50
2023-04-25T10:57:41.253Z,97324.25
2023-04-25T11:00:17.126Z,97307.94
2023-04-25T11:02:48.114Z,97315.78
2023-04-25T11:05:50.908Z,97318.66
2023-04-25T11:08:31.558Z,97312.69
2023-04-25T11:10:59.852Z,97322.00
2023-04-25T11:13:32.075Z,97316.81
2023-04-25T11:16:12.117Z,97323.22
2023-04-25T11:18:43.952Z,97313.06
2023-04-25T11:21:12.352Z,97316.81
2023-04-25T11:23:40.706Z,97309.78
2023-04-25T11:26:09.095Z,97325.91
2023-04-25T11:28:37.572Z,97317.22
2023-04-25T11:31:07.765Z,97340.38
2023-04-25T11:33:36.200Z,97330.84
2023-04-25T11:36:04.733Z,97316.59
2023-04-25T11:38:33.059Z,97325.47
2023-04-25T11:41:02.131Z,97332.94
2023-04-25T11:43:31.297Z,97334.78
2023-04-25T11:45:59.799Z,97332.09
2023-04-25T11:48:31.316Z,97315.38
2023-04-25T11:50:59.732Z,97319.69
2023-04-25T11:53:29.390Z,97314.13
2023-04-25T11:55:58.413Z,97321.34
2023-04-25T11:58:27.550Z,97339.56
2023-04-25T12:00:59.664Z,97331.88
2023-04-25T12:03:32.465Z,97331.88
2023-04-25T12:06:06.550Z,97331.06
2023-04-25T12:08:35.114Z,97319.69
2023-04-25T12:11:04.421Z,97327.53
2023-04-25T12:13:33.935Z,97331.28
2023-04-25T12:16:02.613Z,97323.00
2023-04-25T12:18:32.408Z,97327.75
2023-04-25T12:21:01.174Z,97322.38
2023-04-25T12:23:30.020Z,97323.22
2023-04-25T12:25:58.832Z,97334.56
2023-04-25T12:28:28.686Z,97333.13
2023-04-25T12:30:58.821Z,97347.81
2023-04-25T12:33:28.265Z,97326.50
2023-04-25T12:35:58.573Z,97331.28
2023-04-25T12:38:27.622Z,97330.25
2023-04-25T12:40:56.250Z,97317.00
2023-04-25T12:43:24.649Z,97327.16
2023-04-25T12:45:53.346Z,97323.84
2023-04-25T12:48:21.904Z,97327.59
2023-04-25T12:50:50.780Z,97332.13
2023-04-25T12:53:20.943Z,97326.75
2023-04-25T12:55:49.380Z,97321.38
2023-04-25T12:58:18.503Z,97307.72
2023-04-25T13:00:47.299Z,97310.41
2023-04-25T13:03:16.061Z,97312.28
2023-04-25T13:05:44.674Z,97312.28
2023-04-25T13:08:13.044Z,97312.88
2023-04-25T13:10:43.018Z,97310.19
2023-04-25T13:13:11.442Z,97306.69
2023-04-25T13:15:39.895Z,97309.38
2023-04-25T13:18:08.726Z,97310.19
2023-04-25T13:20:37.116Z,97310.81
2023-04-25T13:23:05.576Z,97310.81
2023-04-25T13:25:34.072Z,97308.94
2023-04-25T13:28:04.491Z,97303.56
2023-04-25T13:30:32.922Z,97304.44
2023-04-25T13:33:04.395Z,97302.56
2023-04-25T13:35:33.229Z,97306.06
2023-04-25T13:38:01.852Z,97308.56
2023-04-25T13:40:30.374Z,97308.56
2023-04-25T13:42:58.798Z,97305.03
2023-04-25T13:45:28.988Z,97309.38
2023-04-25T13:47:57.922Z,97311.06
2023-04-25T13:50:26.863Z,97303.81
2023-04-25T13:52:55.218Z,97307.72
2023-04-25T13:55:23.634Z,97311.88
2023-04-25T13:57:52.066Z,97310.88
2023-04-25T14:00:21.383Z,97312.53
2023-04-25T14:02:51.531Z,97320.16
2023-04-25T14:05:20.250Z,97321.00
2023-04-25T14:07:48.622Z,97320.38
2023-04-25T14:10:17.173Z,97321.41
2023-04-25T14:12:45.501Z,97311.47
2023-04-25T14:15:13.849Z,97310.44
2023-04-25T14:17:42.277Z,97316.84
2023-04-25T14:20:13.075Z,97310.44
2023-04-25T14:22:44.746Z,97312.53
2023-04-25T14:25:13.142Z,97319.75
2023-04-25T14:27:41.502Z,97320.59
2023-04-25T14:30:12.931Z,97318.94
2023-04-25T14:32:41.739Z,97312.72
2023-04-25T14:35:11.870Z,97325.13
2023-04-25T14:37:40.420Z,97330.31
2023-04-25T14:40:11.851Z,97324.94
2023-04-25T14:42:40.271Z,97319.56
2023-04-25T14:45:09.753Z,97308.81
2023-04-25T14:47:38.540Z,97311.50
2023-04-25T14:50:09.598Z,97317.50
2023-04-25T14:52:39.368Z,97318.50
2023-04-25T14:55:08.531Z,97320.19
2023-04-25T14:57:37.172Z,97321.41
2023-04-25T15:00:09.860Z,97320.16
2023-04-25T15:02:39.005Z,97318.31
2023-04-25T15:05:09.592Z,97315.63
2023-04-25T15:07:40.506Z,97329.69
2023-04-25T15:10:14.620Z,97326.19
2023-04-25T15:12:43.007Z,97324.72
2023-04-25T15:15:14.245Z,97324.72
2023-04-25T15:17:46.249Z,97317.72
2023-04-25T15:20:16.013Z,97319.34
2023-04-25T15:22:46.621Z,97324.09
2023-04-25T15:25:15.073Z,97320.41
2023-04-25T15:27:44.725Z,97329.06
2023-04-25T15:30:14.750Z,97326.78
2023-04-25T15:32:43.206Z,97333.00
2023-04-25T15:35:12.172Z,97331.75
2023-04-25T15:37:41.484Z,97334.88
2023-04-25T15:40:15.148Z,97332.81
2023-04-25T15:42:44.679Z,97327.00
2023-04-25T15:45:13.593Z,97333.44
2023-04-25T15:47:42.145Z,97337.13
2023-04-25T15:50:11.461Z,97335.06
2023-04-25T15:52:40.217Z,97330.50
2023-04-25T15:55:11.651Z,97330.50
2023-04-25T15:57:42.145Z,97333.00
2023-04-25T16:00:13.466Z,97330.50
2023-04-25T16:02:42.297Z,97325.13
2023-04-25T16:05:11.684Z,97319.56
2023-04-25T16:07:40.342Z,97317.69
2023-04-25T16:10:11.403Z,97325.13
2023-04-25T16:12:40.102Z,97327.81
2023-04-25T16:15:09.660Z,97317.91
2023-04-25T16:17:38.166Z,97329.69
2023-04-25T16:20:10.429Z,97331.97
2023-04-25T16:22:39.787Z,97337.16
2023-04-25T16:25:10.285Z,97341.72
2023-04-25T16:27:39.733Z,97347.09
2023-04-25T16:30:10.148Z,97342.31
2023-04-25T16:32:39.959Z,97341.28
2023-04-25T16:35:09.680Z,97350.81
2023-04-25T16:37:38.182Z,97355.56
2023-04-25T16:40:09.995Z,97356.63
2023-04-25T16:42:39.735Z,97355.38
2023-04-25T16:45:11.091Z,97342.94
2023-04-25T16:47:39.548Z,97350.19
2023-04-25T16:50:09.520Z,97351.00
2023-04-25T16:52:37.973Z,97353.28
2023-04-25T16:55:08.146Z,97352.69
2023-04-25T16:57:37.518Z,97351.00
2023-04-25T17:00:10.635Z,97353.69
2023-04-25T17:02:39.318Z,97358.66
2023-04-25T17:05:08.910Z,97361.56
2023-04-25T17:07:37.303Z,97364.28
2023-04-25T17:10:06.738Z,97372.53
2023-04-25T17:12:35.135Z,97366.13
2023-04-25T17:15:03.491Z,97361.56
2023-04-25T17:17:33.267Z,97372.97
2023-04-25T17:20:01.834Z,97372.75
2023-04-25T17:22:30.729Z,97372.75
2023-04-25T17:24:59.201Z,97365.50
2023-04-25T17:27:27.687Z,97377.72
2023-04-25T17:29:56.222Z,97382.69
2023-04-25T17:32:24.611Z,97379.38
2023-04-25T17:34:54.380Z,97382.06
2023-04-25T17:37:23.135Z,97388.06
2023-04-25T17:39:51.668Z,97389.31
2023-04-25T17:42:20.067Z,97396.75
2023-04-25T17:44:48.479Z,97401.91
2023-04-25T17:47:17.279Z,97401.28
2023-04-25T17:49:45.655Z,97390.34
2023-04-25T17:52:16.609Z,97402.75
2023-04-25T17:54:45.094Z,97417.88
2023-04-25T17:57:13.526Z,97420.34
2023-04-25T17:59:42.598Z,97424.25
2023-04-25T18:02:11.042Z,97426.97
2023-04-25T18:04:39.624Z,97432.56
2023-04-25T18:07:08.610Z,97438.13
2023-04-25T18:09:38.404Z,97433.59
2023-04-25T18:12:08.205Z,97440.00
2023-04-25T18:14:36.823Z,97440.00
2023-04-25T18:17:07.193Z,97431.94
2023-04-25T18:19:35.625Z,97440.00
2023-04-25T18:22:04.159Z,97445.38
2023-04-25T18:24:32.583Z,97448.06
2023-04-25T18:27:06.062Z,97455.94
2023-04-25T18:29:34.564Z,97465.88
2023-04-25T18:32:04.896Z,97472.09
2023-04-25T18:34:33.778Z,97476.66
2023-04-25T18:37:02.174Z,97482.03
2023-04-25T18:39:30.639Z,97488.44
2023-04-25T18:42:02.548Z,97490.09
2023-04-25T18:44:39.628Z,97492.97
2023-04-25T18:47:08.958Z,97502.91
2023-04-25T18:49:38.682Z,97503.94
2023-04-25T18:52:10.597Z,97504.97
2023-04-25T18:54:39.025Z,97509.53
2023-04-25T18:57:07.461Z,97506.03
2023-04-25T18:59:37.220Z,97511.59
2023-04-25T19:02:05.840Z,97520.47
2023-04-25T19:04:34.616Z,97534.16
2023-04-25T19:07:04.203Z,97539.31
2023-04-25T19:09:32.768Z,97532.06
2023-04-25T19:12:01.892Z,97536.63
2023-04-25T19:14:32.420Z,97531.25
2023-04-25T19:17:02.545Z,97539.31
2023-04-25T19:19:31.297Z,97537.44
2023-04-25T19:21:59.807Z,97543.88
2023-04-25T19:24:28.615Z,97539.53
2023-04-25T19:26:57.041Z,97549.44
2023-04-25T19:29:25.403Z,97542.63
2023-04-25T19:31:53.761Z,97547.38
2023-04-25T19:34:23.543Z,97545.75
2023-04-25T19:36:54.110Z,97545.34
2023-04-25T19:39:23.089Z,97543.69
2023-04-25T19:41:51.598Z,97550.09
2023-04-25T19:44:19.990Z,97546.56
2023-04-25T19:46:49.626Z,97548.22
2023-04-25T19:49:18.250Z,97551.94
2023-04-25T19:51:48.032Z,97554.63
2023-04-25T19:54:16.565Z,97544.06
2023-04-25T19:56:45.164Z,97546.56
2023-04-25T19:59:13.556Z,97559.19
2023-04-25T20:01:42.028Z,97555.69
2023-04-25T20:04:10.688Z,97557.50
2023-04-25T20:06:39.129Z,97560.19
2023-04-25T20:09:09.642Z,97558.56
2023-04-25T20:11:38.068Z,97563.94
2023-04-25T20:14:06.446Z,97563.94
2023-04-25T20:16:35.064Z,97560.19
2023-04-25T20:19:05.214Z,97560.41
2023-04-25T20:21:34.567Z,97563.94
2023-04-25T20:24:02.993Z,97567.25
2023-04-25T20:26:34.012Z,97571.59
2023-04-25T20:29:02.948Z,97574.28
2023-04-25T20:31:32.055Z,97574.28
2023-04-25T20:34:01.060Z,97583.41
2023-04-25T20:36:29.731Z,97580.72
2023-04-25T20:38:58.089Z,97586.91
2023-04-25T20:41:26.548Z,97591.47
2023-04-25T20:43:56.994Z,97594.16
2023-04-25T20:46:25.508Z,97604.94
2023-04-25T20:48:54.223Z,97604.94
2023-04-25T20:51:23.081Z,97608.63
2023-04-25T20:53:51.491Z,97614.88
2023-04-25T20:56:20.763Z,97605.94
2023-04-25T20:58:49.170Z,97617.56
2023-04-25T21:01:19.245Z,97612.19
2023-04-25T21:03:50.126Z,97614.00
2023-04-25T21:06:18.670Z,97617.75
2023-04-25T21:08:47.189Z,97619.38
2023-04-25T21:11:16.050Z,97623.94
2023-04-25T21:13:44.690Z,97621.25
2023-04-25T21:16:13.130Z,97623.13
2023-04-25T21:18:42.845Z,97617.75
2023-04-25T21:21:11.830Z,97625.81
2023-04-25T21:23:40.189Z,97623.75
2023-04-25T21:26:08.689Z,97624.78
2023-04-25T21:28:37.079Z,97621.25
2023-04-25T21:31:05.824Z,97620.25
2023-04-25T21:33:34.201Z,97626.63
2023-04-25T21:36:03.983Z,97630.16
2023-04-25T21:38:32.356Z,97631.19
2023-04-25T21:41:00.789Z,97637.41
2023-04-25T21:43:29.309Z,97637.41
2023-04-25T21:46:21.644Z,97647.34
2023-04-25T21:48:46.050Z,97642.78
2023-04-25T21:51:16.880Z,97645.47
2023-04-25T21:53:45.331Z,97650.03
2023-04-25T21:56:13.713Z,97656.22
2023-04-25T21:58:42.190Z,97651.66
2023-04-25T22:01:11.024Z,97654.56
2023-04-25T22:03:39.623Z,97655.41
2023-04-25T22:06:08.429Z,97667.19
2023-04-25T22:08:38.383Z,97664.50
2023-04-25T22:11:08.449Z,97668.22
2023-04-25T22:13:36.990Z,97666.56
2023-04-25T22:16:06.441Z,97666.56
2023-04-25T22:18:34.966Z,97675.69
2023-04-25T22:21:03.383Z,97676.50
2023-04-25T22:23:31.803Z,97674.00
2023-04-25T22:26:01.596Z,97676.50
2023-04-25T22:28:31.900Z,97665.94
2023-04-25T22:31:00.379Z,97672.97
2023-04-25T22:33:28.773Z,97675.84
2023-04-25T22:35:57.178Z,97677.50
2023-04-25T22:38:25.600Z,97679.38
2023-04-25T22:40:54.031Z,97675.84
2023-04-25T22:43:23.748Z,97673.34
2023-04-25T22:45:52.365Z,97669.66
2023-04-25T22:48:20.938Z,97669.66
2023-04-25T22:50:49.278Z,97683.09
2023-04-25T22:53:17.760Z,97678.56
2023-04-25T22:55:46.170Z,97671.53
2023-04-25T22:58:14.790Z,97688.50
2023-04-25T23:00:44.545Z,97693.66
2023-04-25T23:03:13.101Z,97692.00
2023-04-25T23:05:41.589Z,97700.25
2023-04-25T23:08:10.249Z,97699.25
2023-04-25T23:10:38.639Z,97703.81
2023-04-25T23:13:07.059Z,97703.81
2023-04-25T23:15:35.468Z,97702.94
2023-04-25T23:18:05.422Z,97700.25
2023-04-25T23:20:34.350Z,97714.56
2023-04-25T23:23:02.762Z,97710.00
2023-04-25T23:25:31.187Z,97715.38
2023-04-25T23:27:59.572Z,97714.56
2023-04-25T23:30:28.113Z,97713.69
2023-04-25T23:32:56.541Z,97711.00
2023-04-25T23:35:27.683Z,97712.06
2023-04-25T23:37:56.283Z,97719.09
2023-04-25T23:40:24.967Z,97722.81
2023-04-25T23:42:53.369Z,97723.63
2023-04-25T23:45:22.340Z,97724.69
2023-04-25T23:47:51.275Z,97727.16
2023-04-25T23:50:19.987Z,97733.56
2023-04-25T23:52:49.785Z,97722.81
2023-04-25T23:55:18.360Z,97723.84
2023-04-25T23:57:46.726Z,97729.22
